Time;durP1;ratioP1;P1;durP2;ratioP2;P2;SDS_P1;SDS_P2;PMS_P1;PMS_P2;Temp;Humidity;BMP_temperature;BMP_pressure;BME280_temperature;BME280_humidity;BME280_pressure;Samples;Min_cycle;Max_cycle;Signal;HPM_P1;HPM_P2
2023/12/09 00:03:38;;;;;;;;;;;7.80;99.90;;;;;;8449176;28;19934;-72
2023/12/09 00:07:40;;;;;;;;;;;7.80;99.90;;;;;;8424645;28;19931;-72
2023/12/09 00:11:42;;;;;;;;;;;7.80;99.90;;;;;;8425040;28;19924;-73
2023/12/09 00:15:43;;;;;;;;;;;7.80;99.90;;;;;;8426744;28;19932;-73
2023/12/09 00:19:45;;;;;;;;;;;7.80;99.90;;;;;;8424314;28;19924;-73
2023/12/09 00:23:47;;;;;;;;;;;7.80;99.90;;;;;;8476752;27;19924;-73
2023/12/09 00:27:49;;;;;;;;;;;7.80;99.90;;;;;;8436267;28;19931;-73
2023/12/09 00:31:50;;;;;;;;;;;7.80;99.90;;;;;;8436185;28;19931;-72
2023/12/09 00:35:52;;;;;;;;;;;7.70;99.90;;;;;;8437870;28;20379;-72
2023/12/09 00:39:54;;;;;;;;;;;7.80;99.90;;;;;;8441712;28;19928;-72
2023/12/09 00:43:55;;;;;;;;;;;7.70;99.90;;;;;;8445987;28;20329;-72
2023/12/09 00:47:59;;;;;;;;;;;7.70;99.90;;;;;;8427690;28;19958;-73
2023/12/09 00:52:01;;;;;;;;;;;7.70;99.90;;;;;;8428821;28;19923;-72
2023/12/09 00:56:02;;;;;;;;;;;7.70;99.90;;;;;;8432360;28;19931;-72
2023/12/09 01:10:39;;;;;;;;;;;7.70;99.90;;;;;;8423063;28;19931;-73
2023/12/09 01:14:40;;;;;;;;;;;7.60;99.90;;;;;;8441349;28;19974;-73
2023/12/09 01:18:42;;;;;;;;;;;7.60;99.90;;;;;;8440680;28;19930;-73
2023/12/09 01:22:44;;;;;;;;;;;7.50;99.90;;;;;;8434478;28;19931;-73
2023/12/09 01:26:45;;;;;;;;;;;7.50;99.90;;;;;;8446460;28;19924;-72
2023/12/09 01:30:47;;;;;;;;;;;7.50;99.90;;;;;;8439505;28;19968;-73
2023/12/09 01:35:13;;;;;;;;;;;7.40;99.90;;;;;;8447474;28;19928;-73
2023/12/09 01:39:15;;;;;;;;;;;7.40;99.90;;;;;;8437724;28;20165;-73
2023/12/09 01:43:17;;;;;;;;;;;7.30;99.90;;;;;;8433380;28;19931;-72
2023/12/09 01:47:18;;;;;;;;;;;7.40;99.90;;;;;;8448855;28;20385;-73
2023/12/09 01:51:20;;;;;;;;;;;7.30;99.90;;;;;;8443772;28;19946;-73
2023/12/09 01:55:23;;;;;;;;;;;7.30;99.90;;;;;;8437356;28;19928;-73
2023/12/09 01:59:25;;;;;;;;;;;7.30;99.90;;;;;;8438778;28;19980;-73
2023/12/09 02:03:26;;;;;;;;;;;7.30;99.90;;;;;;8434846;28;19974;-73
2023/12/09 02:07:28;;;;;;;;;;;7.30;99.90;;;;;;8439078;28;19975;-73
2023/12/09 02:11:39;;;;;;;;;;;7.30;99.90;;;;;;8446769;28;20433;-73
2023/12/09 02:15:45;;;;;;;;;;;7.20;99.90;;;;;;8438946;28;19924;-73
2023/12/09 02:19:46;;;;;;;;;;;7.20;99.90;;;;;;8451004;28;19928;-73
2023/12/09 02:23:48;;;;;;;;;;;7.20;99.90;;;;;;8448599;28;19931;-73
2023/12/09 02:27:57;;;;;;;;;;;7.20;99.90;;;;;;8439948;28;19931;-73
2023/12/09 02:32:02;;;;;;;;;;;7.20;99.90;;;;;;8445139;28;20007;-73
2023/12/09 02:36:05;;;;;;;;;;;7.20;99.90;;;;;;8454075;28;19924;-73
2023/12/09 02:40:09;;;;;;;;;;;7.10;99.90;;;;;;8431571;28;20655;-73
2023/12/09 02:44:11;;;;;;;;;;;7.10;99.90;;;;;;8442992;28;19924;-73
2023/12/09 02:48:13;;;;;;;;;;;7.00;99.90;;;;;;8439573;28;19932;-73
2023/12/09 02:52:15;;;;;;;;;;;7.00;99.90;;;;;;8438125;28;19924;-73
2023/12/09 02:56:17;;;;;;;;;;;7.00;99.90;;;;;;8436369;28;19975;-73
2023/12/09 03:00:18;;;;;;;;;;;6.90;99.90;;;;;;8435722;28;19930;-74
2023/12/09 03:04:20;;;;;;;;;;;6.90;99.90;;;;;;8435755;28;20341;-73
2023/12/09 03:08:22;;;;;;;;;;;6.90;99.90;;;;;;8438609;28;19978;-73
2023/12/09 03:12:23;;;;;;;;;;;6.80;99.90;;;;;;8434805;28;19932;-73
2023/12/09 03:16:25;;;;;;;;;;;6.80;99.90;;;;;;8427414;28;19935;-73
2023/12/09 03:20:27;;;;;;;;;;;6.80;99.90;;;;;;8435986;28;19925;-72
2023/12/09 03:24:29;;;;;;;;;;;6.80;99.90;;;;;;8427200;28;19950;-72
2023/12/09 03:28:30;;;;;;;;;;;6.70;99.90;;;;;;8438351;28;19928;-72
2023/12/09 03:32:32;;;;;;;;;;;6.70;99.90;;;;;;8441575;28;19924;-73
2023/12/09 03:36:34;;;;;;;;;;;6.70;99.90;;;;;;8444676;28;19935;-73
2023/12/09 03:40:36;;;;;;;;;;;6.70;99.90;;;;;;8436978;28;19953;-73
2023/12/09 03:44:37;;;;;;;;;;;6.60;99.90;;;;;;8442604;28;19976;-73
2023/12/09 03:48:39;;;;;;;;;;;6.60;99.90;;;;;;8441345;28;19932;-73
2023/12/09 03:52:41;;;;;;;;;;;6.60;99.90;;;;;;8439643;28;20319;-73
2023/12/09 03:56:43;;;;;;;;;;;6.60;99.90;;;;;;8428899;28;20329;-73
2023/12/09 04:00:44;;;;;;;;;;;6.60;99.90;;;;;;8452482;28;19930;-73
2023/12/09 04:04:46;;;;;;;;;;;6.60;99.90;;;;;;8422755;28;19924;-72
2023/12/09 04:08:48;;;;;;;;;;;6.60;99.90;;;;;;8430184;28;19928;-73
2023/12/09 04:12:50;;;;;;;;;;;6.60;99.90;;;;;;8441212;28;19924;-73
2023/12/09 04:16:51;;;;;;;;;;;6.50;99.90;;;;;;8420482;28;19946;-73
2023/12/09 04:20:54;;;;;;;;;;;6.50;99.90;;;;;;8428364;28;19923;-72
2023/12/09 04:24:55;;;;;;;;;;;6.50;99.90;;;;;;8423073;28;20023;-73
2023/12/09 04:28:57;;;;;;;;;;;6.50;99.90;;;;;;8426966;28;20268;-72
2023/12/09 04:32:59;;;;;;;;;;;6.50;99.90;;;;;;8444320;28;19923;-73
2023/12/09 04:37:01;;;;;;;;;;;6.50;99.90;;;;;;8436662;28;20267;-72
2023/12/09 04:41:04;;;;;;;;;;;6.50;99.90;;;;;;8445045;28;19931;-73
2023/12/09 04:45:06;;;;;;;;;;;6.50;99.90;;;;;;8424390;28;19932;-73
2023/12/09 04:49:08;;;;;;;;;;;6.50;99.90;;;;;;8423598;28;19935;-74
2023/12/09 04:58:14;;;;;;;;;;;6.50;99.90;;;;;;8435445;28;19970;-73
2023/12/09 05:02:16;;;;;;;;;;;6.50;99.90;;;;;;8438358;28;19966;-72
2023/12/09 05:06:17;;;;;;;;;;;6.50;99.90;;;;;;8429675;28;19931;-73
2023/12/09 05:10:19;;;;;;;;;;;6.50;99.90;;;;;;8445004;28;19930;-73
2023/12/09 05:14:21;;;;;;;;;;;6.50;99.90;;;;;;8438936;28;19942;-73
2023/12/09 05:18:22;;;;;;;;;;;6.50;99.90;;;;;;8440963;28;19992;-73
2023/12/09 05:22:24;;;;;;;;;;;6.50;99.90;;;;;;8442836;28;19928;-73
2023/12/09 05:26:27;;;;;;;;;;;6.50;99.90;;;;;;8433200;28;19931;-72
2023/12/09 05:30:28;;;;;;;;;;;6.50;99.90;;;;;;8439057;28;19931;-72
2023/12/09 05:34:30;;;;;;;;;;;6.50;99.90;;;;;;8443809;28;19981;-72
2023/12/09 05:38:32;;;;;;;;;;;6.50;99.90;;;;;;8425310;28;19924;-74
2023/12/09 05:42:33;;;;;;;;;;;6.60;99.90;;;;;;8435077;28;20496;-73
2023/12/09 05:46:36;;;;;;;;;;;6.50;99.90;;;;;;8430897;28;19931;-73
2023/12/09 05:50:38;;;;;;;;;;;6.50;99.90;;;;;;8428586;28;19935;-73
2023/12/09 05:54:39;;;;;;;;;;;6.50;99.90;;;;;;8432048;28;19928;-72
2023/12/09 05:58:41;;;;;;;;;;;6.50;99.90;;;;;;8437051;28;19924;-73
2023/12/09 06:12:26;;;;;;;;;;;6.50;99.90;;;;;;8401442;28;19975;-73
2023/12/09 06:16:28;;;;;;;;;;;6.50;99.90;;;;;;8402938;28;19978;-73
2023/12/09 06:20:30;;;;;;;;;;;6.50;99.90;;;;;;8421854;28;19931;-73
2023/12/09 06:24:32;;;;;;;;;;;6.50;99.90;;;;;;8426687;28;19928;-73
2023/12/09 06:28:34;;;;;;;;;;;6.50;99.90;;;;;;8432602;28;19924;-73
2023/12/09 06:32:36;;;;;;;;;;;6.50;99.90;;;;;;8447615;28;19928;-72
2023/12/09 06:36:38;;;;;;;;;;;6.50;99.90;;;;;;8436655;28;19994;-73
2023/12/09 06:40:39;;;;;;;;;;;6.50;99.90;;;;;;8432080;28;19969;-73
2023/12/09 06:44:41;;;;;;;;;;;6.60;99.90;;;;;;8437931;28;20313;-73
2023/12/09 06:48:43;;;;;;;;;;;6.60;99.90;;;;;;8440502;28;19955;-72
2023/12/09 06:52:45;;;;;;;;;;;6.70;99.90;;;;;;8430597;28;20029;-72
2023/12/09 06:56:46;;;;;;;;;;;6.70;99.90;;;;;;8430347;28;20299;-73
2023/12/09 07:00:48;;;;;;;;;;;6.80;99.90;;;;;;8424831;28;20267;-73
2023/12/09 07:04:50;;;;;;;;;;;6.80;99.90;;;;;;8432735;28;19928;-73
2023/12/09 07:08:53;;;;;;;;;;;6.90;99.90;;;;;;8449718;28;19924;-73
2023/12/09 07:12:55;;;;;;;;;;;6.90;99.90;;;;;;8435594;28;19932;-73
2023/12/09 07:16:56;;;;;;;;;;;6.90;99.90;;;;;;8426501;28;19931;-73
2023/12/09 07:20:58;;;;;;;;;;;7.00;99.90;;;;;;8427915;28;20387;-73
2023/12/09 07:25:00;;;;;;;;;;;7.00;99.90;;;;;;8422585;28;19927;-73
2023/12/09 07:29:05;;;;;;;;;;;7.00;99.90;;;;;;8433834;28;19931;-73
2023/12/09 07:33:07;;;;;;;;;;;7.10;99.90;;;;;;8432454;28;20277;-72
2023/12/09 07:58:13;;;;;;;;;;;7.10;99.90;;;;;;8435512;28;19922;-72
2023/12/09 08:02:15;;;;;;;;;;;7.20;99.90;;;;;;8426675;28;19923;-73
2023/12/09 08:06:16;;;;;;;;;;;7.20;99.90;;;;;;8425921;28;19961;-73
2023/12/09 08:10:19;;;;;;;;;;;7.20;99.90;;;;;;8424647;28;19923;-73
2023/12/09 08:14:20;;;;;;;;;;;7.30;99.90;;;;;;8440217;28;20284;-73
2023/12/09 08:18:22;;;;;;;;;;;7.30;99.90;;;;;;8440530;28;19931;-72
2023/12/09 08:22:24;;;;;;;;;;;7.30;99.90;;;;;;8428313;28;19924;-73
2023/12/09 08:26:25;;;;;;;;;;;7.30;99.90;;;;;;8442594;28;20344;-73
2023/12/09 08:30:27;;;;;;;;;;;7.30;99.90;;;;;;8447265;28;20382;-73
2023/12/09 08:34:29;;;;;;;;;;;7.30;99.90;;;;;;8420285;28;19924;-72
2023/12/09 08:38:31;;;;;;;;;;;7.30;99.90;;;;;;8410112;28;19924;-73
2023/12/09 08:42:32;;;;;;;;;;;7.30;99.90;;;;;;8420579;28;19959;-73
2023/12/09 08:46:34;;;;;;;;;;;7.30;99.90;;;;;;8425373;28;19943;-73
2023/12/09 08:50:36;;;;;;;;;;;7.30;99.90;;;;;;8430764;28;19928;-72
2023/12/09 08:54:37;;;;;;;;;;;7.30;99.90;;;;;;8431931;28;19925;-72
2023/12/09 08:58:39;;;;;;;;;;;7.40;99.90;;;;;;8405438;28;19934;-73
2023/12/09 09:02:41;;;;;;;;;;;7.40;99.90;;;;;;8424587;28;19924;-73
2023/12/09 09:06:42;;;;;;;;;;;7.40;99.90;;;;;;8451652;28;19923;-73
2023/12/09 09:10:44;;;;;;;;;;;7.40;99.90;;;;;;8440673;28;20378;-73
2023/12/09 09:14:46;;;;;;;;;;;7.40;99.90;;;;;;8427819;28;19927;-73
2023/12/09 09:23:44;;;;;;;;;;;7.40;99.90;;;;;;8422300;28;20410;-72
2023/12/09 09:27:47;;;;;;;;;;;7.40;99.90;;;;;;8430051;28;19928;-73
2023/12/09 09:31:51;;;;;;;;;;;7.50;99.90;;;;;;8441576;28;20385;-73
2023/12/09 09:35:54;;;;;;;;;;;7.50;99.90;;;;;;8444785;28;20452;-72
2023/12/09 09:39:56;;;;;;;;;;;7.50;99.90;;;;;;8446760;28;20353;-73
2023/12/09 09:44:01;;;;;;;;;;;7.50;99.90;;;;;;8428209;28;19932;-73
2023/12/09 09:48:04;;;;;;;;;;;7.60;99.90;;;;;;8430310;28;19923;-72
2023/12/09 09:52:09;;;;;;;;;;;7.70;99.90;;;;;;8444986;28;19924;-72
2023/12/09 09:56:11;;;;;;;;;;;7.80;99.90;;;;;;8431555;28;19924;-72
2023/12/09 10:00:14;;;;;;;;;;;7.80;99.90;;;;;;8442155;28;19966;-73
2023/12/09 10:04:16;;;;;;;;;;;7.90;99.90;;;;;;8422378;28;19934;-72
2023/12/09 10:08:18;;;;;;;;;;;7.90;99.90;;;;;;8434539;28;20034;-73
2023/12/09 10:12:19;;;;;;;;;;;8.00;99.90;;;;;;8415143;28;19955;-72
2023/12/09 10:16:21;;;;;;;;;;;8.00;99.90;;;;;;8423730;28;20384;-73
2023/12/09 10:20:23;;;;;;;;;;;8.10;99.90;;;;;;8428044;28;20375;-73
2023/12/09 10:24:25;;;;;;;;;;;8.10;99.90;;;;;;8435838;28;19924;-73
2023/12/09 10:28:27;;;;;;;;;;;8.20;99.90;;;;;;8420919;28;20298;-73
2023/12/09 10:32:29;;;;;;;;;;;8.30;99.90;;;;;;8432914;28;20012;-73
2023/12/09 10:41:47;;;;;;;;;;;8.40;99.90;;;;;;8403491;28;20034;-73
2023/12/09 10:45:48;;;;;;;;;;;8.50;99.90;;;;;;8441063;28;20341;-73
2023/12/09 10:49:51;;;;;;;;;;;8.50;99.90;;;;;;8445116;28;19964;-73
2023/12/09 10:53:52;;;;;;;;;;;8.50;99.90;;;;;;8434991;28;19928;-73
2023/12/09 10:57:54;;;;;;;;;;;8.50;99.90;;;;;;8433528;28;19924;-73
2023/12/09 11:01:56;;;;;;;;;;;8.50;99.90;;;;;;8425646;28;20345;-73
2023/12/09 11:05:59;;;;;;;;;;;8.50;99.90;;;;;;8429098;28;19978;-73
2023/12/09 11:10:01;;;;;;;;;;;8.60;99.90;;;;;;8426326;28;20243;-73
2023/12/09 11:14:08;;;;;;;;;;;8.60;99.90;;;;;;8437734;28;20445;-73
2023/12/09 11:18:10;;;;;;;;;;;8.60;99.90;;;;;;8429473;28;19969;-73
2023/12/09 11:22:12;;;;;;;;;;;8.60;99.90;;;;;;8437603;28;19935;-73
2023/12/09 11:26:16;;;;;;;;;;;8.60;99.90;;;;;;8434386;28;19928;-73
2023/12/09 11:30:34;;;;;;;;;;;8.60;99.90;;;;;;8422317;28;19928;-73
2023/12/09 11:34:36;;;;;;;;;;;8.60;99.90;;;;;;8412529;28;19925;-73
2023/12/09 11:38:38;;;;;;;;;;;8.60;99.90;;;;;;8425563;28;19969;-73
2023/12/09 11:42:40;;;;;;;;;;;8.70;99.90;;;;;;8423297;28;19924;-73
2023/12/09 11:46:43;;;;;;;;;;;8.70;99.90;;;;;;8418972;28;20367;-73
2023/12/09 12:00:25;;;;;;;;;;;8.50;99.90;;;;;;8410978;28;19970;-73
2023/12/09 12:04:33;;;;;;;;;;;8.50;99.90;;;;;;8428596;28;20352;-73
2023/12/09 12:08:37;;;;;;;;;;;8.50;99.90;;;;;;8425576;28;19928;-73
2023/12/09 12:12:39;;;;;;;;;;;8.50;99.90;;;;;;8431433;28;19931;-73
2023/12/09 12:16:41;;;;;;;;;;;8.50;99.90;;;;;;8422929;28;19942;-73
2023/12/09 12:20:43;;;;;;;;;;;8.50;99.90;;;;;;8428510;28;20232;-73
2023/12/09 12:24:45;;;;;;;;;;;8.50;99.90;;;;;;8424746;28;19932;-73
2023/12/09 12:28:48;;;;;;;;;;;8.50;99.90;;;;;;8433922;28;19947;-73
2023/12/09 12:32:54;;;;;;;;;;;8.50;99.90;;;;;;8427793;28;19951;-73
2023/12/09 12:36:58;;;;;;;;;;;8.50;99.90;;;;;;8419549;28;19935;-73
2023/12/09 12:41:01;;;;;;;;;;;8.40;99.90;;;;;;8426047;28;19976;-73
2023/12/09 12:45:06;;;;;;;;;;;8.40;99.90;;;;;;8427771;28;19931;-73
2023/12/09 12:49:08;;;;;;;;;;;8.40;99.90;;;;;;8428408;28;19928;-73
2023/12/09 12:53:11;;;;;;;;;;;8.30;99.90;;;;;;8437630;28;19931;-73
2023/12/09 12:57:12;;;;;;;;;;;8.30;99.90;;;;;;8405375;28;19928;-73
2023/12/09 13:01:14;;;;;;;;;;;8.30;99.90;;;;;;8412090;28;19924;-73
2023/12/09 13:05:16;;;;;;;;;;;8.30;99.90;;;;;;8413358;28;19960;-73
2023/12/09 13:09:17;;;;;;;;;;;8.30;99.90;;;;;;8409714;28;20652;-73
2023/12/09 13:13:19;;;;;;;;;;;8.30;99.90;;;;;;8418764;28;19932;-73
2023/12/09 13:17:21;;;;;;;;;;;8.30;99.90;;;;;;8404913;28;20015;-73
2023/12/09 13:21:22;;;;;;;;;;;8.20;99.90;;;;;;8416417;28;19976;-73
2023/12/09 13:25:24;;;;;;;;;;;8.20;99.90;;;;;;8419792;28;19924;-73
2023/12/09 13:29:26;;;;;;;;;;;8.20;99.90;;;;;;8432874;28;20395;-73
2023/12/09 13:33:28;;;;;;;;;;;8.20;99.90;;;;;;8419043;28;19932;-73
2023/12/09 13:37:30;;;;;;;;;;;8.20;99.90;;;;;;8422620;28;20458;-73
2023/12/09 13:41:32;;;;;;;;;;;8.10;99.90;;;;;;8425664;28;20295;-72
2023/12/09 13:45:35;;;;;;;;;;;8.10;99.90;;;;;;8416257;28;20394;-73
2023/12/09 13:49:37;;;;;;;;;;;8.10;99.90;;;;;;8425128;28;20146;-73
2023/12/09 13:53:39;;;;;;;;;;;8.10;99.90;;;;;;8434558;28;19951;-73
2023/12/09 13:57:41;;;;;;;;;;;8.10;99.90;;;;;;8441205;28;20291;-72
2023/12/09 14:01:43;;;;;;;;;;;8.10;99.90;;;;;;8430581;28;19983;-72
2023/12/09 14:05:45;;;;;;;;;;;8.10;99.90;;;;;;8424089;28;19925;-73
2023/12/09 14:09:47;;;;;;;;;;;8.00;99.90;;;;;;8432840;28;19924;-73
2023/12/09 14:13:49;;;;;;;;;;;8.00;99.90;;;;;;8437526;28;20288;-72
2023/12/09 14:17:51;;;;;;;;;;;8.00;99.90;;;;;;8414845;28;19924;-72
2023/12/09 14:21:53;;;;;;;;;;;8.00;99.90;;;;;;8421216;28;20345;-72
2023/12/09 14:25:55;;;;;;;;;;;8.00;99.90;;;;;;8439824;28;19936;-73
2023/12/09 14:29:57;;;;;;;;;;;7.90;99.90;;;;;;8434874;28;19924;-72
2023/12/09 14:33:58;;;;;;;;;;;7.90;99.90;;;;;;8422440;28;19931;-73
2023/12/09 14:38:00;;;;;;;;;;;7.90;99.90;;;;;;8422291;28;19951;-73
2023/12/09 14:42:02;;;;;;;;;;;7.90;99.90;;;;;;8424212;28;19924;-72
2023/12/09 14:46:04;;;;;;;;;;;7.90;99.90;;;;;;8443815;27;20236;-73
2023/12/09 14:50:06;;;;;;;;;;;7.90;99.90;;;;;;8424147;28;19924;-73
2023/12/09 14:54:08;;;;;;;;;;;7.90;99.90;;;;;;8427189;28;20000;-73
2023/12/09 14:58:10;;;;;;;;;;;7.90;99.90;;;;;;8422921;28;19936;-73
2023/12/09 15:02:11;;;;;;;;;;;7.90;99.90;;;;;;8424313;28;19967;-73
2023/12/09 15:06:13;;;;;;;;;;;7.80;99.90;;;;;;8428194;28;19928;-73
2023/12/09 15:10:15;;;;;;;;;;;7.80;99.90;;;;;;8426847;28;20014;-73
2023/12/09 15:14:17;;;;;;;;;;;7.80;99.90;;;;;;8422281;28;19924;-73
2023/12/09 15:18:19;;;;;;;;;;;7.80;99.90;;;;;;8421681;28;20277;-73
2023/12/09 15:22:21;;;;;;;;;;;7.70;99.90;;;;;;8438322;28;19963;-73
2023/12/09 15:26:23;;;;;;;;;;;7.70;99.90;;;;;;8441350;28;19932;-73
2023/12/09 15:30:25;;;;;;;;;;;7.70;99.90;;;;;;8445951;27;19976;-72
2023/12/09 15:34:27;;;;;;;;;;;7.80;99.90;;;;;;8422932;28;19931;-73
2023/12/09 15:38:32;;;;;;;;;;;7.80;99.90;;;;;;8443084;28;20067;-73
2023/12/09 15:42:35;;;;;;;;;;;7.70;99.90;;;;;;8430701;28;19924;-72
2023/12/09 15:46:37;;;;;;;;;;;7.70;99.90;;;;;;8427993;28;19930;-73
2023/12/09 15:50:39;;;;;;;;;;;7.70;99.90;;;;;;8419905;28;20280;-71
2023/12/09 15:54:40;;;;;;;;;;;7.70;99.90;;;;;;8453605;27;20335;-73
2023/12/09 15:58:42;;;;;;;;;;;7.70;99.90;;;;;;8424649;28;19924;-73
2023/12/09 16:02:45;;;;;;;;;;;7.70;99.90;;;;;;8424111;28;19924;-73
2023/12/09 16:06:47;;;;;;;;;;;7.80;99.90;;;;;;8424715;28;19924;-73
2023/12/09 16:10:49;;;;;;;;;;;7.80;99.90;;;;;;8423652;28;20846;-72
2023/12/09 16:14:53;;;;;;;;;;;7.80;99.90;;;;;;8409521;28;19924;-73
2023/12/09 16:18:56;;;;;;;;;;;7.80;99.90;;;;;;8415720;28;19936;-73
2023/12/09 16:22:58;;;;;;;;;;;7.80;99.90;;;;;;8423614;28;19928;-73
2023/12/09 16:26:59;;;;;;;;;;;7.80;99.90;;;;;;8428079;28;20382;-72
2023/12/09 16:31:01;;;;;;;;;;;7.80;99.90;;;;;;8417923;28;19928;-73
2023/12/09 16:35:03;;;;;;;;;;;7.90;99.90;;;;;;8445587;27;20326;-73
2023/12/09 16:39:06;;;;;;;;;;;7.90;99.90;;;;;;8421366;28;19929;-73
2023/12/09 16:43:07;;;;;;;;;;;7.90;99.90;;;;;;8403669;28;20023;-73
2023/12/09 16:47:10;;;;;;;;;;;7.90;99.90;;;;;;8395815;28;19932;-73
2023/12/09 16:51:12;;;;;;;;;;;7.90;99.90;;;;;;8397457;28;19929;-73
2023/12/09 16:55:15;;;;;;;;;;;7.90;99.90;;;;;;8394271;28;19947;-73
2023/12/09 16:59:18;;;;;;;;;;;7.90;99.90;;;;;;8399269;28;20384;-73
2023/12/09 17:03:20;;;;;;;;;;;7.90;99.90;;;;;;8397329;28;19928;-73
2023/12/09 17:07:24;;;;;;;;;;;8.00;99.90;;;;;;8399709;28;19932;-72
2023/12/09 17:11:26;;;;;;;;;;;8.00;99.90;;;;;;8398803;28;19940;-73
2023/12/09 17:15:28;;;;;;;;;;;8.00;99.90;;;;;;8392474;28;20000;-73
2023/12/09 17:19:30;;;;;;;;;;;8.10;99.90;;;;;;8394362;28;20421;-73
2023/12/09 17:23:33;;;;;;;;;;;8.10;99.90;;;;;;8397232;28;20290;-73
2023/12/09 17:27:35;;;;;;;;;;;8.10;99.90;;;;;;8393700;28;19960;-73
2023/12/09 17:31:37;;;;;;;;;;;8.10;99.90;;;;;;8395333;28;19924;-73
2023/12/09 17:35:42;;;;;;;;;;;8.20;99.90;;;;;;8398993;28;19932;-72
2023/12/09 17:39:44;;;;;;;;;;;8.20;99.90;;;;;;8435983;27;19935;-72
2023/12/09 17:43:47;;;;;;;;;;;8.30;99.90;;;;;;8399696;28;19928;-73
2023/12/09 17:47:50;;;;;;;;;;;8.40;99.90;;;;;;8406348;28;20357;-72
2023/12/09 17:51:53;;;;;;;;;;;8.50;99.90;;;;;;8407608;28;19928;-73
2023/12/09 17:55:55;;;;;;;;;;;8.60;99.90;;;;;;8399619;28;20007;-73
2023/12/09 17:59:57;;;;;;;;;;;8.70;99.90;;;;;;8394643;28;19987;-73
2023/12/09 18:03:59;;;;;;;;;;;8.90;99.90;;;;;;8397803;28;20327;-73
2023/12/09 18:08:01;;;;;;;;;;;9.10;99.90;;;;;;8390520;28;19939;-72
2023/12/09 18:12:04;;;;;;;;;;;9.20;99.90;;;;;;8411986;28;19932;-72
2023/12/09 18:16:06;;;;;;;;;;;9.40;99.90;;;;;;8408199;28;20415;-72
2023/12/09 18:20:10;;;;;;;;;;;9.60;99.90;;;;;;8396377;28;19924;-72
2023/12/09 18:24:12;;;;;;;;;;;9.80;99.90;;;;;;8394910;28;20387;-71
2023/12/09 18:28:14;;;;;;;;;;;9.90;99.90;;;;;;8396197;28;21121;-72
2023/12/09 18:32:16;;;;;;;;;;;10.00;99.90;;;;;;8393793;28;20375;-73
2023/12/09 18:36:18;;;;;;;;;;;10.20;99.90;;;;;;8397488;28;19963;-73
2023/12/09 18:40:22;;;;;;;;;;;10.30;99.90;;;;;;8396314;28;19989;-73
2023/12/09 18:44:24;;;;;;;;;;;10.30;99.90;;;;;;8394368;28;19932;-73
2023/12/09 18:48:26;;;;;;;;;;;10.30;99.90;;;;;;8394150;28;19928;-73
2023/12/09 18:52:28;;;;;;;;;;;10.20;99.90;;;;;;8392578;28;20417;-72
2023/12/09 18:56:31;;;;;;;;;;;10.20;99.90;;;;;;8394335;28;20015;-74
2023/12/09 19:00:32;;;;;;;;;;;10.10;99.90;;;;;;8394296;28;19939;-72
2023/12/09 19:04:34;;;;;;;;;;;10.00;99.90;;;;;;8395196;28;19947;-73
2023/12/09 19:08:38;;;;;;;;;;;9.90;99.90;;;;;;8391450;28;19963;-73
2023/12/09 19:12:40;;;;;;;;;;;9.80;99.90;;;;;;8392880;28;19933;-72
2023/12/09 19:16:41;;;;;;;;;;;9.70;99.90;;;;;;8393738;28;19943;-73
2023/12/09 19:20:43;;;;;;;;;;;9.60;99.90;;;;;;8394954;28;20021;-73
2023/12/09 19:24:45;;;;;;;;;;;9.50;99.90;;;;;;8400204;28;20341;-73
2023/12/09 19:28:47;;;;;;;;;;;9.50;99.90;;;;;;8402869;28;20315;-73
2023/12/09 19:32:49;;;;;;;;;;;9.40;99.90;;;;;;8408382;28;19931;-72
2023/12/09 19:36:51;;;;;;;;;;;9.40;99.90;;;;;;8413942;28;19924;-73
2023/12/09 19:40:53;;;;;;;;;;;9.40;99.90;;;;;;8406170;28;19929;-73
2023/12/09 19:44:54;;;;;;;;;;;9.30;99.90;;;;;;8395889;28;19924;-73
2023/12/09 19:48:56;;;;;;;;;;;9.30;99.90;;;;;;8424720;27;19956;-72
2023/12/09 19:52:59;;;;;;;;;;;9.30;99.90;;;;;;8392058;28;20371;-73
2023/12/09 19:57:01;;;;;;;;;;;9.30;99.90;;;;;;8428667;27;20532;-73
2023/12/09 20:01:03;;;;;;;;;;;9.40;99.90;;;;;;8391532;28;20030;-73
2023/12/09 20:05:05;;;;;;;;;;;9.40;99.90;;;;;;8393387;28;19932;-73
2023/12/09 20:09:07;;;;;;;;;;;9.40;99.90;;;;;;8393457;28;19923;-73
2023/12/09 20:13:09;;;;;;;;;;;9.40;99.90;;;;;;8420384;27;19928;-73
2023/12/09 20:17:10;;;;;;;;;;;9.40;99.90;;;;;;8391583;28;19969;-73
2023/12/09 20:21:12;;;;;;;;;;;9.40;99.90;;;;;;8398961;28;19943;-73
2023/12/09 20:25:14;;;;;;;;;;;9.50;99.90;;;;;;8393263;28;19939;-73
2023/12/09 20:29:16;;;;;;;;;;;9.50;99.90;;;;;;8384130;28;19932;-73
2023/12/09 20:33:17;;;;;;;;;;;9.50;99.90;;;;;;8397464;28;20283;-73
2023/12/09 20:37:19;;;;;;;;;;;9.50;99.90;;;;;;8420596;27;20384;-72
2023/12/09 20:41:21;;;;;;;;;;;9.60;99.90;;;;;;8396274;28;19928;-73
2023/12/09 20:45:26;;;;;;;;;;;9.60;99.90;;;;;;8393877;28;19940;-73
2023/12/09 20:49:27;;;;;;;;;;;9.60;99.90;;;;;;8388926;28;19932;-73
2023/12/09 20:53:29;;;;;;;;;;;9.60;99.90;;;;;;8427797;27;19928;-73
2023/12/09 20:57:31;;;;;;;;;;;9.50;99.90;;;;;;8389921;28;19928;-73
2023/12/09 21:01:33;;;;;;;;;;;9.60;99.90;;;;;;8405839;28;20593;-73
2023/12/09 21:05:34;;;;;;;;;;;9.60;99.90;;;;;;8389868;28;19932;-73
2023/12/09 21:09:39;;;;;;;;;;;9.60;99.90;;;;;;8390254;28;20050;-73
2023/12/09 21:13:40;;;;;;;;;;;9.60;99.90;;;;;;8394721;28;19924;-73
2023/12/09 21:17:42;;;;;;;;;;;9.60;99.90;;;;;;8387768;28;19924;-73
2023/12/09 21:21:44;;;;;;;;;;;9.70;99.90;;;;;;8396077;28;19931;-73
2023/12/09 21:25:47;;;;;;;;;;;9.70;99.90;;;;;;8391859;28;20412;-73
2023/12/09 21:29:49;;;;;;;;;;;9.70;99.90;;;;;;8392146;28;19925;-73
2023/12/09 21:33:52;;;;;;;;;;;9.70;99.90;;;;;;8397349;28;19924;-73
2023/12/09 21:37:53;;;;;;;;;;;9.70;99.90;;;;;;8394675;28;19982;-73
2023/12/09 21:41:55;;;;;;;;;;;9.60;99.90;;;;;;8400177;28;19935;-73
2023/12/09 21:45:57;;;;;;;;;;;9.60;99.90;;;;;;8400665;28;19924;-73
2023/12/09 21:49:59;;;;;;;;;;;9.50;99.90;;;;;;8395510;28;19984;-73
2023/12/09 21:54:01;;;;;;;;;;;9.40;99.90;;;;;;8396438;28;19935;-73
2023/12/09 21:58:03;;;;;;;;;;;9.40;99.90;;;;;;8399982;28;19928;-73
2023/12/09 22:02:05;;;;;;;;;;;9.30;99.90;;;;;;8444608;27;19952;-73
2023/12/09 22:06:07;;;;;;;;;;;9.30;99.90;;;;;;8440881;28;20509;-73
2023/12/09 22:10:09;;;;;;;;;;;9.20;99.90;;;;;;8450261;28;19939;-73
2023/12/09 22:14:11;;;;;;;;;;;9.20;99.90;;;;;;8432855;28;20044;-73
2023/12/09 22:18:12;;;;;;;;;;;9.10;99.90;;;;;;8441988;28;20001;-73
2023/12/09 22:22:14;;;;;;;;;;;9.00;99.90;;;;;;8426510;28;19988;-73
2023/12/09 22:26:16;;;;;;;;;;;9.00;99.90;;;;;;8441248;28;19986;-73
2023/12/09 22:30:18;;;;;;;;;;;8.90;99.90;;;;;;8445574;28;20314;-73
2023/12/09 22:34:19;;;;;;;;;;;8.90;99.90;;;;;;8436784;28;19966;-73
2023/12/09 22:38:21;;;;;;;;;;;8.90;99.90;;;;;;8444818;28;19924;-73
2023/12/09 22:42:23;;;;;;;;;;;8.90;99.90;;;;;;8444529;28;19935;-72
2023/12/09 22:46:25;;;;;;;;;;;8.80;99.90;;;;;;8430255;28;20068;-73
2023/12/09 22:50:26;;;;;;;;;;;8.80;99.90;;;;;;8431188;28;20284;-73
2023/12/09 22:54:30;;;;;;;;;;;8.80;99.90;;;;;;8434475;28;19992;-73
2023/12/09 22:58:32;;;;;;;;;;;8.90;99.90;;;;;;8442040;28;19977;-73
2023/12/09 23:02:34;;;;;;;;;;;8.90;99.90;;;;;;8427459;28;19935;-73
2023/12/09 23:06:35;;;;;;;;;;;9.00;99.90;;;;;;8441247;28;19927;-72
2023/12/09 23:10:37;;;;;;;;;;;9.00;99.90;;;;;;8447093;28;20005;-73
2023/12/09 23:14:39;;;;;;;;;;;9.00;99.90;;;;;;8430614;28;19924;-72
2023/12/09 23:18:40;;;;;;;;;;;9.10;99.90;;;;;;8431536;28;20288;-73
2023/12/09 23:22:42;;;;;;;;;;;9.10;99.90;;;;;;8437356;28;19977;-73
2023/12/09 23:26:44;;;;;;;;;;;9.10;99.90;;;;;;8433347;28;19970;-73
2023/12/09 23:30:46;;;;;;;;;;;9.10;99.90;;;;;;8438774;28;19934;-73
2023/12/09 23:34:48;;;;;;;;;;;9.20;99.90;;;;;;8434813;28;20336;-73
2023/12/09 23:38:50;;;;;;;;;;;9.20;99.90;;;;;;8442450;28;19977;-73
2023/12/09 23:42:51;;;;;;;;;;;9.30;99.90;;;;;;8441752;28;20419;-72
2023/12/09 23:46:53;;;;;;;;;;;9.30;99.90;;;;;;8439081;28;20371;-73
2023/12/09 23:50:55;;;;;;;;;;;9.40;99.90;;;;;;8439245;28;20018;-73
2023/12/09 23:54:56;;;;;;;;;;;9.40;99.90;;;;;;8441160;28;19927;-73
2023/12/09 23:58:58;;;;;;;;;;;9.40;99.90;;;;;;8438710;27;19924;-73
